Time;durP1;ratioP1;P1;durP2;ratioP2;P2;SDS_P1;SDS_P2;PMS_P1;PMS_P2;Temp;Humidity;BMP_temperature;BMP_pressure;BME280_temperature;BME280_humidity;BME280_pressure;Samples;Min_cycle;Max_cycle;Signal;HPM_P1;HPM_P2
2022/05/02 00:01:02;;;;;;;;;23.00;21.00;;;;;;;;5033401;28;12290;-75
2022/05/02 00:03:30;;;;;;;;;24.50;17.50;;;;;;;;5034837;28;11652;-75
2022/05/02 00:05:59;;;;;;;;;16.25;14.50;;;;;;;;5034353;28;11656;-77
2022/05/02 00:08:29;;;;;;;;;19.25;18.50;;;;;;;;5033839;28;11536;-75
2022/05/02 00:10:56;;;;;;;;;24.50;22.00;;;;;;;;5036861;28;11661;-75
2022/05/02 00:13:24;;;;;;;;;20.75;18.00;;;;;;;;5057152;28;11543;-77
2022/05/02 00:15:51;;;;;;;;;17.00;17.00;;;;;;;;5039507;28;12296;-76
2022/05/02 00:18:19;;;;;;;;;23.25;21.75;;;;;;;;5043002;28;11496;-75
2022/05/02 00:20:46;;;;;;;;;22.00;22.00;;;;;;;;5043117;28;11664;-76
2022/05/02 00:23:15;;;;;;;;;23.25;21.00;;;;;;;;5041221;28;11547;-76
2022/05/02 00:25:42;;;;;;;;;25.75;23.75;;;;;;;;5038112;28;11560;-76
2022/05/02 00:28:13;;;;;;;;;25.25;21.25;;;;;;;;5034079;28;11504;-76
2022/05/02 00:30:41;;;;;;;;;26.25;26.25;;;;;;;;5034229;28;11622;-75
2022/05/02 00:33:08;;;;;;;;;30.00;27.00;;;;;;;;5035543;28;11601;-76
2022/05/02 00:35:36;;;;;;;;;29.25;25.75;;;;;;;;5037275;28;11660;-77
2022/05/02 00:38:03;;;;;;;;;27.00;25.00;;;;;;;;5039657;28;11535;-77
2022/05/02 00:40:32;;;;;;;;;22.00;20.50;;;;;;;;5040692;28;11553;-78
2022/05/02 00:42:59;;;;;;;;;28.75;24.75;;;;;;;;5039228;28;11560;-77
2022/05/02 00:45:27;;;;;;;;;29.50;25.75;;;;;;;;5032450;28;12401;-76
2022/05/02 00:47:57;;;;;;;;;28.75;28.25;;;;;;;;5034501;28;12328;-77
2022/05/02 00:50:34;;;;;;;;;25.50;25.50;;;;;;;;5070300;28;11538;-77
2022/05/02 00:53:02;;;;;;;;;27.25;23.50;;;;;;;;5041931;28;11534;-77
2022/05/02 00:55:31;;;;;;;;;25.50;24.00;;;;;;;;5033342;28;11544;-77
2022/05/02 00:58:00;;;;;;;;;25.25;21.25;;;;;;;;5034278;28;11608;-77
2022/05/02 01:00:27;;;;;;;;;30.00;26.75;;;;;;;;5051268;28;12876;-77
2022/05/02 01:02:55;;;;;;;;;26.00;25.50;;;;;;;;5039504;28;11543;-75
2022/05/02 01:05:22;;;;;;;;;31.75;25.75;;;;;;;;5038579;28;11548;-76
2022/05/02 01:07:49;;;;;;;;;23.75;22.50;;;;;;;;5033722;28;11602;-76
2022/05/02 01:10:18;;;;;;;;;23.75;23.75;;;;;;;;5033947;28;11714;-75
2022/05/02 01:12:48;;;;;;;;;22.50;21.75;;;;;;;;5030495;28;11592;-76
2022/05/02 01:15:16;;;;;;;;;28.00;27.00;;;;;;;;5045070;28;11581;-77
2022/05/02 01:17:44;;;;;;;;;29.00;26.00;;;;;;;;5045211;28;11743;-76
2022/05/02 01:20:14;;;;;;;;;30.00;30.00;;;;;;;;5048287;28;11715;-76
2022/05/02 01:22:42;;;;;;;;;32.75;29.50;;;;;;;;5045103;28;11595;-75
2022/05/02 01:25:10;;;;;;;;;29.50;27.25;;;;;;;;5032198;28;11745;-76
2022/05/02 01:27:37;;;;;;;;;25.00;24.00;;;;;;;;5032174;28;11615;-76
2022/05/02 01:30:06;;;;;;;;;28.00;26.50;;;;;;;;5042595;28;11614;-77
2022/05/02 01:32:33;;;;;;;;;33.25;27.25;;;;;;;;5033762;28;11610;-76
2022/05/02 01:35:00;;;;;;;;;30.50;29.75;;;;;;;;5031810;28;11609;-76
2022/05/02 01:37:29;;;;;;;;;28.75;28.75;;;;;;;;5066064;28;11637;-77
2022/05/02 01:39:56;;;;;;;;;29.00;24.75;;;;;;;;5034472;28;11600;-77
2022/05/02 01:42:23;;;;;;;;;39.00;34.00;;;;;;;;5033688;28;11636;-76
2022/05/02 01:44:51;;;;;;;;;29.75;27.50;;;;;;;;5040559;28;11610;-77
2022/05/02 01:47:18;;;;;;;;;27.50;27.50;;;;;;;;5045849;28;11724;-76
2022/05/02 01:49:45;;;;;;;;;31.75;27.50;;;;;;;;5031813;28;11579;-77
2022/05/02 01:52:13;;;;;;;;;25.50;25.50;;;;;;;;5038221;28;11588;-77
2022/05/02 01:54:42;;;;;;;;;31.25;28.75;;;;;;;;5033217;28;11718;-76
2022/05/02 01:57:09;;;;;;;;;29.00;28.75;;;;;;;;5041119;28;11646;-76
2022/05/02 01:59:36;;;;;;;;;32.25;28.00;;;;;;;;5040492;28;11595;-77
2022/05/02 02:02:04;;;;;;;;;32.75;28.75;;;;;;;;5038861;28;12256;-76
2022/05/02 02:07:16;;;;;;;;;21.25;20.75;;;;;;;;5041457;28;11577;-77
2022/05/02 02:09:44;;;;;;;;;35.50;30.75;;;;;;;;5037869;28;11600;-76
2022/05/02 02:12:12;;;;;;;;;30.50;30.25;;;;;;;;5043212;28;11710;-77
2022/05/02 02:14:39;;;;;;;;;34.25;29.50;;;;;;;;5039756;28;11619;-77
2022/05/02 02:17:06;;;;;;;;;32.75;26.00;;;;;;;;5043604;28;11622;-78
2022/05/02 02:19:33;;;;;;;;;33.00;31.25;;;;;;;;5042915;28;11713;-77
2022/05/02 02:22:16;;;;;;;;;34.50;32.75;;;;;;;;5043748;28;11593;-77
2022/05/02 02:24:45;;;;;;;;;28.75;26.75;;;;;;;;5041146;28;11592;-77
2022/05/02 02:27:13;;;;;;;;;30.50;25.00;;;;;;;;5029471;28;12339;-77
2022/05/02 02:29:40;;;;;;;;;24.50;21.75;;;;;;;;5036864;28;11607;-76
2022/05/02 02:32:08;;;;;;;;;33.00;31.75;;;;;;;;5031737;28;11554;-77
2022/05/02 02:34:35;;;;;;;;;31.25;31.25;;;;;;;;5038606;28;11611;-76
2022/05/02 02:37:03;;;;;;;;;36.50;34.25;;;;;;;;5041192;28;11596;-77
2022/05/02 02:39:30;;;;;;;;;27.25;27.25;;;;;;;;5041984;28;11632;-76
2022/05/02 02:41:58;;;;;;;;;37.00;30.50;;;;;;;;5039995;28;11612;-77
2022/05/02 02:44:26;;;;;;;;;37.00;34.50;;;;;;;;5033401;28;12369;-76
2022/05/02 02:46:53;;;;;;;;;36.25;34.00;;;;;;;;5037720;28;11594;-77
2022/05/02 02:49:20;;;;;;;;;41.75;38.00;;;;;;;;5040079;28;12400;-76
2022/05/02 02:51:47;;;;;;;;;45.00;39.75;;;;;;;;5034993;28;11687;-76
2022/05/02 02:54:15;;;;;;;;;38.25;32.50;;;;;;;;5036500;28;11621;-76
2022/05/02 02:56:42;;;;;;;;;38.25;36.75;;;;;;;;5036829;28;11608;-76
2022/05/02 02:59:11;;;;;;;;;37.25;36.00;;;;;;;;5033922;28;12402;-76
2022/05/02 03:01:38;;;;;;;;;30.25;30.25;;;;;;;;5037011;28;11743;-77
2022/05/02 03:06:47;;;;;;;;;39.00;38.00;;;;;;;;5038067;28;11719;-77
2022/05/02 03:09:14;;;;;;;;;43.25;37.25;;;;;;;;5040280;28;11618;-76
2022/05/02 03:11:42;;;;;;;;;38.00;34.50;;;;;;;;5039008;28;11629;-77
2022/05/02 03:14:10;;;;;;;;;46.00;38.50;;;;;;;;5047470;28;11586;-77
2022/05/02 03:16:38;;;;;;;;;38.75;38.25;;;;;;;;5037154;28;11610;-76
2022/05/02 03:19:07;;;;;;;;;37.00;35.50;;;;;;;;5039164;28;11584;-76
2022/05/02 03:21:34;;;;;;;;;42.00;38.25;;;;;;;;5036588;28;11597;-77
2022/05/02 03:24:02;;;;;;;;;40.00;36.75;;;;;;;;5031183;28;11645;-77
2022/05/02 03:26:29;;;;;;;;;56.00;41.50;;;;;;;;5040425;28;11634;-76
2022/05/02 03:28:57;;;;;;;;;43.25;40.75;;;;;;;;5033426;28;11754;-76
2022/05/02 03:31:26;;;;;;;;;50.00;39.50;;;;;;;;5030329;28;12232;-76
2022/05/02 03:33:53;;;;;;;;;50.25;40.25;;;;;;;;5040283;28;11585;-76
2022/05/02 03:36:20;;;;;;;;;42.25;35.75;;;;;;;;5040769;28;11655;-77
2022/05/02 03:38:47;;;;;;;;;45.00;41.25;;;;;;;;5039291;28;11654;-77
2022/05/02 03:41:15;;;;;;;;;49.00;42.25;;;;;;;;5028328;28;11643;-77
2022/05/02 03:43:43;;;;;;;;;32.50;30.50;;;;;;;;5032522;28;11603;-77
2022/05/02 03:46:10;;;;;;;;;42.00;38.25;;;;;;;;5040759;28;11604;-75
2022/05/02 03:48:39;;;;;;;;;48.00;42.50;;;;;;;;5033553;28;11761;-76
2022/05/02 03:51:07;;;;;;;;;48.25;41.25;;;;;;;;5075223;28;12463;-76
2022/05/02 03:53:34;;;;;;;;;49.25;43.50;;;;;;;;5039784;28;11692;-75
2022/05/02 03:56:01;;;;;;;;;58.75;47.50;;;;;;;;5028327;28;11615;-76
2022/05/02 03:58:28;;;;;;;;;42.25;37.75;;;;;;;;5037303;28;11726;-76
2022/05/02 04:00:56;;;;;;;;;42.00;38.50;;;;;;;;5045681;28;12421;-76
2022/05/02 04:03:23;;;;;;;;;43.50;38.50;;;;;;;;5033697;28;11744;-76
2022/05/02 04:05:52;;;;;;;;;48.00;40.75;;;;;;;;5038799;28;12139;-77
2022/05/02 04:08:20;;;;;;;;;44.25;41.00;;;;;;;;5038881;28;11581;-76
2022/05/02 04:10:47;;;;;;;;;42.75;39.25;;;;;;;;5037335;28;11666;-77
2022/05/02 04:13:14;;;;;;;;;44.75;39.25;;;;;;;;5038714;28;11610;-76
2022/05/02 04:15:42;;;;;;;;;50.00;42.25;;;;;;;;5053085;28;11602;-76
2022/05/02 04:18:10;;;;;;;;;42.25;40.00;;;;;;;;5030711;28;11601;-76
2022/05/02 04:20:37;;;;;;;;;43.00;39.25;;;;;;;;5041163;28;11623;-76
2022/05/02 04:23:06;;;;;;;;;53.00;44.00;;;;;;;;5052090;28;11667;-75
2022/05/02 04:25:33;;;;;;;;;48.25;41.75;;;;;;;;5034705;28;11630;-76
2022/05/02 04:28:01;;;;;;;;;43.00;38.75;;;;;;;;5036666;28;11611;-77
2022/05/02 04:30:29;;;;;;;;;43.75;38.25;;;;;;;;5027635;28;11610;-77
2022/05/02 04:32:56;;;;;;;;;50.00;41.00;;;;;;;;5036028;28;11615;-76
2022/05/02 04:35:23;;;;;;;;;47.00;38.50;;;;;;;;5032468;28;11592;-77
2022/05/02 04:37:51;;;;;;;;;43.25;36.50;;;;;;;;5031602;28;11852;-81
2022/05/02 04:40:20;;;;;;;;;36.50;35.50;;;;;;;;5038256;28;11602;-78
2022/05/02 04:42:50;;;;;;;;;35.25;35.00;;;;;;;;5030399;28;11643;-76
2022/05/02 04:45:18;;;;;;;;;37.00;37.00;;;;;;;;5026644;28;11621;-74
2022/05/02 04:47:45;;;;;;;;;51.50;39.25;;;;;;;;5031222;28;11605;-78
2022/05/02 04:50:13;;;;;;;;;46.50;37.00;;;;;;;;5033886;28;11614;-74
2022/05/02 04:52:40;;;;;;;;;41.25;38.25;;;;;;;;5034297;28;11610;-88
2022/05/02 04:55:08;;;;;;;;;38.00;36.00;;;;;;;;5028533;28;11588;-75
2022/05/02 04:57:37;;;;;;;;;36.75;36.75;;;;;;;;5031599;28;11620;-77
2022/05/02 05:00:06;;;;;;;;;44.00;37.25;;;;;;;;5032941;28;11646;-77
2022/05/02 05:02:33;;;;;;;;;52.75;42.00;;;;;;;;5028419;28;11678;-76
2022/05/02 05:05:01;;;;;;;;;45.50;40.25;;;;;;;;5033395;28;11607;-76
2022/05/02 05:07:28;;;;;;;;;49.75;42.25;;;;;;;;5036947;28;11849;-76
2022/05/02 05:09:56;;;;;;;;;53.75;43.25;;;;;;;;5064946;28;12448;-75
2022/05/02 05:12:34;;;;;;;;;51.25;43.00;;;;;;;;5033332;28;11648;-76
2022/05/02 05:18:03;;;;;;;;;49.00;41.50;;;;;;;;5031641;28;11600;-78
2022/05/02 05:20:40;;;;;;;;;41.50;37.75;;;;;;;;5037386;28;11635;-76
2022/05/02 05:23:23;;;;;;;;;40.25;36.75;;;;;;;;5033271;28;11627;-76
2022/05/02 05:26:00;;;;;;;;;38.25;38.00;;;;;;;;5038220;28;11618;-75
2022/05/02 05:28:46;;;;;;;;;51.25;44.25;;;;;;;;5031589;28;11635;-75
2022/05/02 05:31:29;;;;;;;;;51.00;43.00;;;;;;;;5027827;28;11618;-77
2022/05/02 05:34:07;;;;;;;;;50.75;44.00;;;;;;;;5041239;28;11599;-76
2022/05/02 05:36:47;;;;;;;;;61.75;49.25;;;;;;;;5033010;28;11593;-76
2022/05/02 05:39:22;;;;;;;;;41.25;34.25;;;;;;;;5035511;28;11629;-76
2022/05/02 05:41:59;;;;;;;;;49.50;42.00;;;;;;;;5029022;28;11588;-74
2022/05/02 05:44:33;;;;;;;;;44.75;42.00;;;;;;;;5055748;28;11595;-75
2022/05/02 05:47:21;;;;;;;;;53.75;44.25;;;;;;;;5064896;28;11614;-77
2022/05/02 05:50:00;;;;;;;;;57.50;48.50;;;;;;;;5044835;28;11625;-76
2022/05/02 05:52:35;;;;;;;;;51.75;44.00;;;;;;;;5041891;28;11642;-77
2022/05/02 05:55:06;;;;;;;;;53.25;40.25;;;;;;;;5039737;28;11728;-78
2022/05/02 05:57:43;;;;;;;;;46.75;40.75;;;;;;;;5036967;28;11614;-74
2022/05/02 06:00:12;;;;;;;;;49.50;42.75;;;;;;;;5043411;28;11596;-74
2022/05/02 06:03:08;;;;;;;;;49.50;41.75;;;;;;;;5043867;28;12316;-74
2022/05/02 06:05:41;;;;;;;;;40.50;39.25;;;;;;;;5039908;28;11603;-75
2022/05/02 06:08:10;;;;;;;;;51.50;41.75;;;;;;;;5040254;28;11657;-77
2022/05/02 06:10:39;;;;;;;;;48.25;39.25;;;;;;;;5021450;28;11620;-76
2022/05/02 06:13:07;;;;;;;;;43.25;38.00;;;;;;;;5033063;28;11660;-79
2022/05/02 06:18:29;;;;;;;;;48.25;38.00;;;;;;;;5039957;28;11521;-79
2022/05/02 06:20:59;;;;;;;;;40.00;37.50;;;;;;;;5044439;28;11888;-78
2022/05/02 06:23:28;;;;;;;;;43.00;36.75;;;;;;;;5032810;28;11552;-80
2022/05/02 06:25:56;;;;;;;;;46.75;37.75;;;;;;;;5040881;28;12388;-82
2022/05/02 06:28:28;;;;;;;;;38.75;35.50;;;;;;;;5036242;28;12265;-79
2022/05/02 06:30:58;;;;;;;;;46.50;40.75;;;;;;;;5037757;28;11151;-74
2022/05/02 06:33:27;;;;;;;;;36.50;33.25;;;;;;;;5050283;28;11541;-75
2022/05/02 06:36:05;;;;;;;;;44.00;37.25;;;;;;;;5035201;28;11184;-74
2022/05/02 06:38:45;;;;;;;;;42.75;37.75;;;;;;;;5044998;28;11338;-74
2022/05/02 06:41:22;;;;;;;;;39.00;36.75;;;;;;;;5039621;28;11069;-74
2022/05/02 06:43:56;;;;;;;;;40.25;36.75;;;;;;;;5038700;28;10912;-74
2022/05/02 06:46:30;;;;;;;;;42.75;38.00;;;;;;;;5031510;28;11059;-74
2022/05/02 06:49:02;;;;;;;;;34.25;34.00;;;;;;;;5038089;28;11118;-74
2022/05/02 06:51:31;;;;;;;;;32.75;32.50;;;;;;;;5043053;28;10986;-79
2022/05/02 06:54:23;;;;;;;;;36.25;34.25;;;;;;;;5042089;28;10712;-75
2022/05/02 06:56:56;;;;;;;;;44.25;39.00;;;;;;;;5039489;28;10892;-75
2022/05/02 06:59:36;;;;;;;;;45.50;36.75;;;;;;;;5042018;28;10911;-80
2022/05/02 07:02:19;;;;;;;;;33.25;33.00;;;;;;;;5041332;28;10959;-77
2022/05/02 07:04:51;;;;;;;;;42.25;36.50;;;;;;;;5036371;28;10875;-77
2022/05/02 07:07:46;;;;;;;;;53.50;42.75;;;;;;;;5042187;28;11035;-77
2022/05/02 07:10:18;;;;;;;;;41.00;35.00;;;;;;;;5032902;28;11055;-77
2022/05/02 07:12:54;;;;;;;;;40.00;36.25;;;;;;;;5038536;28;10659;-78
2022/05/02 07:15:26;;;;;;;;;42.25;36.75;;;;;;;;5040457;28;10790;-77
2022/05/02 07:18:06;;;;;;;;;33.75;33.25;;;;;;;;5043077;28;10807;-77
2022/05/02 07:20:49;;;;;;;;;45.25;38.75;;;;;;;;5038156;28;10691;-78
2022/05/02 07:23:37;;;;;;;;;37.75;35.00;;;;;;;;5039064;28;11470;-77
2022/05/02 07:26:08;;;;;;;;;48.25;40.25;;;;;;;;5043422;28;10714;-77
2022/05/02 07:28:42;;;;;;;;;41.25;35.00;;;;;;;;5048770;28;11730;-77
2022/05/02 07:31:10;;;;;;;;;45.00;40.00;;;;;;;;5039402;28;10491;-74
2022/05/02 07:33:39;;;;;;;;;47.75;38.50;;;;;;;;5060302;28;10597;-76
2022/05/02 07:36:09;;;;;;;;;43.50;39.00;;;;;;;;5031691;28;10410;-78
2022/05/02 07:38:37;;;;;;;;;51.00;38.75;;;;;;;;5039967;28;10428;-74
2022/05/02 07:41:24;;;;;;;;;33.75;33.25;;;;;;;;5031725;28;10608;-74
2022/05/02 07:43:59;;;;;;;;;40.75;36.75;;;;;;;;5040286;28;10555;-74
2022/05/02 07:46:29;;;;;;;;;43.00;37.75;;;;;;;;5029787;28;10457;-74
2022/05/02 07:48:58;;;;;;;;;39.50;34.25;;;;;;;;5028637;28;11563;-74
2022/05/02 07:51:27;;;;;;;;;45.25;40.00;;;;;;;;5027493;28;10355;-74
2022/05/02 07:53:55;;;;;;;;;41.50;38.00;;;;;;;;5041380;28;10385;-74
2022/05/02 07:56:27;;;;;;;;;42.75;36.00;;;;;;;;5026959;28;10305;-74
2022/05/02 07:58:56;;;;;;;;;35.50;34.25;;;;;;;;5033631;28;10303;-79
2022/05/02 08:01:24;;;;;;;;;34.75;32.50;;;;;;;;5041613;28;10231;-77
2022/05/02 08:03:52;;;;;;;;;42.00;35.75;;;;;;;;5039751;28;10146;-79
2022/05/02 08:06:35;;;;;;;;;40.00;37.00;;;;;;;;5026997;28;10067;-77
2022/05/02 08:09:08;;;;;;;;;43.75;38.75;;;;;;;;5035496;28;9811;-76
2022/05/02 08:11:43;;;;;;;;;46.00;39.50;;;;;;;;5035893;28;10008;-77
2022/05/02 08:14:17;;;;;;;;;39.50;37.00;;;;;;;;5026483;28;9907;-77
2022/05/02 08:16:55;;;;;;;;;48.25;39.25;;;;;;;;5031681;28;9668;-80
2022/05/02 08:19:36;;;;;;;;;39.75;35.00;;;;;;;;5047522;28;9829;-76
2022/05/02 08:28:00;;;;;;;;;41.00;35.33;;;;;;;;5036700;28;9470;-77
2022/05/02 08:30:27;;;;;;;;;35.33;34.00;;;;;;;;5032425;28;9325;-75
2022/05/02 08:33:04;;;;;;;;;36.00;32.33;;;;;;;;5040572;28;9530;-79
2022/05/02 08:35:46;;;;;;;;;32.00;30.50;;;;;;;;5062319;28;9401;-76
2022/05/02 08:38:40;;;;;;;;;43.25;37.00;;;;;;;;5035087;28;9504;-77
2022/05/02 08:41:40;;;;;;;;;32.33;32.33;;;;;;;;5041001;28;9553;-77
2022/05/02 08:44:55;;;;;;;;;34.00;30.67;;;;;;;;5042220;28;9438;-78
2022/05/02 08:48:09;;;;;;;;;39.33;35.33;;;;;;;;4978400;28;9355;-78
2022/05/02 08:50:58;;;;;;;;;43.25;37.75;;;;;;;;5018841;28;9376;-78
2022/05/02 08:54:03;;;;;;;;;30.33;30.00;;;;;;;;5042527;28;9493;-79
2022/05/02 08:57:04;;;;;;;;;39.00;35.00;;;;;;;;5041644;28;9330;-78
2022/05/02 08:59:57;;;;;;;;;35.33;34.33;;;;;;;;5034265;28;9155;-80
2022/05/02 09:03:01;;;;;;;;;33.33;30.33;;;;;;;;5039462;28;8978;-78
2022/05/02 09:05:48;;;;;;;;;36.50;34.25;;;;;;;;5051325;28;8895;-78
2022/05/02 09:09:18;;;;;;;;;35.33;32.67;;;;;;;;5046202;28;8869;-78
2022/05/02 09:12:14;;;;;;;;;33.75;32.25;;;;;;;;4949410;28;9043;-77
2022/05/02 09:15:03;;;;;;;;;45.67;39.00;;;;;;;;5023800;28;9005;-77
2022/05/02 09:17:59;;;;;;;;;36.00;34.50;;;;;;;;5042118;28;10090;-78
2022/05/02 09:20:54;;;;;;;;;37.00;34.33;;;;;;;;5039723;28;8908;-79
2022/05/02 09:23:53;;;;;;;;;33.00;30.00;;;;;;;;5033887;28;8976;-78
2022/05/02 09:27:11;;;;;;;;;39.75;35.00;;;;;;;;5032268;28;9050;-81
2022/05/02 09:30:19;;;;;;;;;40.25;34.50;;;;;;;;5039051;28;8882;-76
2022/05/02 09:32:48;;;;;;;;;42.33;36.67;;;;;;;;4997219;28;8855;-79
2022/05/02 09:35:19;;;;;;;;;38.75;35.00;;;;;;;;5049837;28;8939;-79
2022/05/02 09:38:00;;;;;;;;;36.25;33.50;;;;;;;;5049628;28;8862;-80
2022/05/02 09:40:35;;;;;;;;;40.25;36.50;;;;;;;;5035604;28;8933;-78
2022/05/02 09:43:25;;;;;;;;;40.50;35.50;;;;;;;;5035688;28;8865;-78
2022/05/02 09:52:04;;;;;;;;;36.75;34.00;;;;;;;;5034614;28;8904;-77
2022/05/02 09:57:36;;;;;;;;;38.00;34.25;;;;;;;;5039610;28;8866;-80
2022/05/02 10:02:53;;;;;;;;;34.00;32.25;;;;;;;;5031763;28;8855;-74
2022/05/02 10:05:27;;;;;;;;;40.25;35.00;;;;;;;;5030573;28;8881;-75
2022/05/02 10:08:02;;;;;;;;;35.00;32.00;;;;;;;;5044683;28;8888;-79
2022/05/02 10:10:36;;;;;;;;;37.00;32.75;;;;;;;;5034278;28;9040;-79
2022/05/02 10:13:14;;;;;;;;;35.75;31.75;;;;;;;;5032085;28;8875;-81
2022/05/02 10:16:08;;;;;;;;;39.50;36.50;;;;;;;;5043269;28;8861;-79
2022/05/02 10:18:48;;;;;;;;;39.00;35.00;;;;;;;;5039324;28;9796;-80
2022/05/02 10:21:32;;;;;;;;;34.75;31.50;;;;;;;;5043693;28;8967;-80
2022/05/02 10:24:24;;;;;;;;;33.00;32.00;;;;;;;;5040931;28;9465;-76
2022/05/02 10:26:56;;;;;;;;;33.75;31.50;;;;;;;;5040673;28;8861;-79
2022/05/02 10:29:52;;;;;;;;;34.50;32.50;;;;;;;;5042993;28;9713;-79
2022/05/02 10:32:33;;;;;;;;;37.75;34.00;;;;;;;;5036988;28;8816;-80
2022/05/02 10:35:01;;;;;;;;;27.75;27.25;;;;;;;;5042310;28;9684;-80
2022/05/02 10:37:38;;;;;;;;;29.75;26.25;;;;;;;;5042969;28;8891;-76
2022/05/02 10:40:08;;;;;;;;;38.25;33.75;;;;;;;;5040187;28;8850;-85
2022/05/02 10:42:36;;;;;;;;;29.75;29.00;;;;;;;;5038914;28;9488;-82
2022/05/02 10:45:06;;;;;;;;;31.50;30.50;;;;;;;;5040805;28;8869;-82
2022/05/02 10:47:41;;;;;;;;;32.75;31.50;;;;;;;;5041648;28;8899;-84
2022/05/02 10:50:16;;;;;;;;;23.75;23.00;;;;;;;;5035704;28;8861;-84
2022/05/02 10:53:11;;;;;;;;;28.50;28.50;;;;;;;;5029548;28;8887;-79
2022/05/02 10:55:40;;;;;;;;;30.50;30.00;;;;;;;;5037572;28;8950;-83
2022/05/02 10:58:11;;;;;;;;;26.50;26.50;;;;;;;;5035562;28;8849;-87
2022/05/02 11:00:52;;;;;;;;;31.50;29.50;;;;;;;;5030456;28;8918;-79
2022/05/02 11:03:29;;;;;;;;;26.50;25.25;;;;;;;;5037648;28;8889;-83
2022/05/02 11:06:07;;;;;;;;;35.50;33.50;;;;;;;;5038176;28;8883;-80
2022/05/02 11:08:42;;;;;;;;;31.50;30.00;;;;;;;;5038680;28;9679;-82
2022/05/02 11:11:09;;;;;;;;;28.00;28.00;;;;;;;;5029058;28;8861;-85
2022/05/02 11:13:45;;;;;;;;;29.50;26.50;;;;;;;;5035994;28;9007;-83
2022/05/02 11:16:20;;;;;;;;;30.50;28.75;;;;;;;;5036883;28;8893;-82
2022/05/02 11:21:55;;;;;;;;;31.75;27.50;;;;;;;;5049019;28;9562;-83
2022/05/02 11:24:43;;;;;;;;;29.00;27.75;;;;;;;;5033258;28;8872;-83
2022/05/02 11:27:21;;;;;;;;;30.75;30.00;;;;;;;;5032277;28;8879;-83
2022/05/02 11:29:57;;;;;;;;;29.25;29.25;;;;;;;;5038527;28;8869;-76
2022/05/02 11:32:29;;;;;;;;;33.75;30.00;;;;;;;;5032951;28;8809;-83
2022/05/02 11:35:05;;;;;;;;;32.50;31.50;;;;;;;;5036893;28;8895;-82
2022/05/02 11:37:37;;;;;;;;;31.50;28.25;;;;;;;;5041974;28;8849;-79
2022/05/02 11:40:09;;;;;;;;;24.25;24.25;;;;;;;;5041751;28;8891;-84
2022/05/02 11:42:42;;;;;;;;;30.75;27.00;;;;;;;;5041861;28;8903;-85
2022/05/02 11:45:11;;;;;;;;;25.00;23.75;;;;;;;;5034639;28;8911;-83
2022/05/02 11:47:59;;;;;;;;;27.25;25.25;;;;;;;;5033748;28;8986;-83
2022/05/02 11:50:29;;;;;;;;;29.75;29.75;;;;;;;;5031241;28;8865;-83
2022/05/02 11:52:59;;;;;;;;;32.50;28.50;;;;;;;;5032961;28;8986;-86
2022/05/02 11:55:30;;;;;;;;;28.00;26.25;;;;;;;;5039068;28;8849;-84
2022/05/02 11:58:05;;;;;;;;;25.75;22.75;;;;;;;;5034170;28;8899;-85
2022/05/02 12:00:35;;;;;;;;;28.50;27.50;;;;;;;;5040938;28;8790;-83
2022/05/02 12:03:05;;;;;;;;;28.00;26.00;;;;;;;;5036170;28;8888;-84
2022/05/02 12:05:40;;;;;;;;;20.50;20.50;;;;;;;;5030032;28;8914;-80
2022/05/02 12:08:09;;;;;;;;;27.50;27.25;;;;;;;;5042700;28;8915;-79
2022/05/02 12:10:41;;;;;;;;;30.75;28.25;;;;;;;;5034435;28;9658;-87
2022/05/02 12:13:11;;;;;;;;;26.50;26.50;;;;;;;;5034556;28;9531;-86
2022/05/02 12:15:55;;;;;;;;;28.25;24.00;;;;;;;;5036551;28;8947;-86
2022/05/02 12:18:22;;;;;;;;;29.00;26.75;;;;;;;;5037157;28;8972;-85
2022/05/02 12:20:56;;;;;;;;;27.25;26.75;;;;;;;;5034770;28;8873;-82
2022/05/02 12:23:26;;;;;;;;;29.50;28.75;;;;;;;;5031883;28;8873;-82
2022/05/02 12:25:55;;;;;;;;;28.25;27.00;;;;;;;;5037796;28;8887;-84
2022/05/02 12:28:40;;;;;;;;;25.75;25.75;;;;;;;;5038860;28;8869;-81
2022/05/02 12:31:08;;;;;;;;;26.25;25.50;;;;;;;;5034271;28;8824;-87
2022/05/02 12:33:40;;;;;;;;;31.00;30.75;;;;;;;;5052686;28;8884;-86
2022/05/02 12:36:16;;;;;;;;;25.50;23.50;;;;;;;;5065829;28;8900;-83
2022/05/02 12:38:55;;;;;;;;;35.00;30.25;;;;;;;;5032044;28;8895;-77
2022/05/02 12:41:36;;;;;;;;;30.25;29.25;;;;;;;;5029963;28;8987;-77
2022/05/02 12:44:09;;;;;;;;;25.50;23.75;;;;;;;;5035634;28;9699;-76
2022/05/02 12:46:39;;;;;;;;;25.50;24.00;;;;;;;;5040397;28;8849;-77
2022/05/02 12:49:11;;;;;;;;;27.75;27.75;;;;;;;;5025671;28;8863;-77
2022/05/02 12:51:39;;;;;;;;;28.00;27.50;;;;;;;;5048355;28;8873;-76
2022/05/02 12:54:13;;;;;;;;;25.50;24.25;;;;;;;;5034325;28;8885;-77
2022/05/02 13:02:33;;;;;;;;;27.25;26.75;;;;;;;;5032005;28;9179;-77
2022/05/02 13:05:03;;;;;;;;;23.75;21.75;;;;;;;;5040828;28;8893;-76
2022/05/02 13:07:40;;;;;;;;;20.20;20.20;;;;;;;;5041659;28;8877;-76
2022/05/02 13:10:16;;;;;;;;;29.75;25.25;;;;;;;;5039857;28;8879;-78
2022/05/02 13:12:59;;;;;;;;;28.80;24.60;;;;;;;;5041423;28;9518;-80
2022/05/02 13:15:27;;;;;;;;;22.40;22.20;;;;;;;;5042027;28;8867;-76
2022/05/02 13:17:59;;;;;;;;;25.80;24.60;;;;;;;;5037727;28;8879;-76
2022/05/02 13:20:28;;;;;;;;;23.00;23.00;;;;;;;;5036307;28;8920;-81
2022/05/02 13:23:03;;;;;;;;;23.40;23.40;;;;;;;;5043754;28;8891;-81
2022/05/02 13:26:00;;;;;;;;;24.60;21.40;;;;;;;;5042366;28;8889;-82
2022/05/02 13:28:32;;;;;;;;;24.40;22.80;;;;;;;;5046968;28;9002;-81
2022/05/02 13:31:06;;;;;;;;;26.40;26.40;;;;;;;;5035980;28;8813;-80
2022/05/02 13:33:36;;;;;;;;;25.60;24.00;;;;;;;;5035171;28;8879;-84
2022/05/02 13:36:05;;;;;;;;;27.60;27.60;;;;;;;;5038345;28;8869;-87
2022/05/02 13:38:51;;;;;;;;;25.40;25.40;;;;;;;;5043267;28;8870;-84
2022/05/02 13:41:25;;;;;;;;;32.00;31.25;;;;;;;;5033174;28;8949;-80
2022/05/02 13:44:06;;;;;;;;;27.00;24.75;;;;;;;;5035267;28;9718;-78
2022/05/02 13:46:45;;;;;;;;;31.50;29.75;;;;;;;;5036075;28;8896;-82
2022/05/02 13:49:22;;;;;;;;;27.50;26.50;;;;;;;;5028428;28;8891;-85
2022/05/02 13:51:57;;;;;;;;;30.25;30.25;;;;;;;;5036725;28;9027;-82
2022/05/02 13:54:29;;;;;;;;;36.75;32.75;;;;;;;;5030291;28;8885;-84
2022/05/02 13:57:05;;;;;;;;;28.25;27.25;;;;;;;;5036678;28;8881;-80
2022/05/02 13:59:42;;;;;;;;;31.50;30.50;;;;;;;;5043153;28;8938;-82
2022/05/02 14:02:15;;;;;;;;;35.00;32.25;;;;;;;;5046246;28;8853;-82
2022/05/02 14:04:47;;;;;;;;;31.25;29.25;;;;;;;;5033970;28;8913;-82
2022/05/02 14:07:15;;;;;;;;;34.00;32.25;;;;;;;;5040225;28;8889;-82
2022/05/02 14:09:54;;;;;;;;;35.75;32.00;;;;;;;;5071802;28;8859;-79
2022/05/02 14:12:37;;;;;;;;;35.25;29.75;;;;;;;;5038161;28;9655;-79
2022/05/02 14:15:06;;;;;;;;;32.25;27.75;;;;;;;;5040729;28;8962;-80
2022/05/02 14:17:38;;;;;;;;;33.25;30.25;;;;;;;;5031846;28;9736;-82
2022/05/02 14:20:22;;;;;;;;;27.00;23.75;;;;;;;;5044079;28;8862;-78
2022/05/02 14:22:55;;;;;;;;;22.75;22.75;;;;;;;;5058670;28;8947;-79
2022/05/02 14:25:31;;;;;;;;;20.25;20.25;;;;;;;;5053596;28;8976;-83
2022/05/02 14:28:01;;;;;;;;;20.00;20.00;;;;;;;;5041456;28;8897;-79
2022/05/02 14:30:31;;;;;;;;;25.75;25.75;;;;;;;;5037754;28;8829;-81
2022/05/02 14:32:59;;;;;;;;;25.50;25.50;;;;;;;;5042699;28;8950;-81
2022/05/02 14:35:28;;;;;;;;;27.50;26.00;;;;;;;;5044941;28;8841;-82
2022/05/02 14:37:57;;;;;;;;;29.00;28.25;;;;;;;;5031253;28;8891;-82
2022/05/02 14:40:25;;;;;;;;;27.00;25.50;;;;;;;;5039120;28;8899;-81
2022/05/02 14:42:54;;;;;;;;;25.25;23.25;;;;;;;;5024603;28;8875;-81
2022/05/02 14:45:21;;;;;;;;;27.75;26.25;;;;;;;;5042244;28;9404;-79
2022/05/02 14:47:51;;;;;;;;;29.00;26.00;;;;;;;;5041528;28;8901;-82
2022/05/02 14:50:21;;;;;;;;;25.25;24.50;;;;;;;;5037227;28;8868;-80
2022/05/02 14:52:49;;;;;;;;;22.25;20.00;;;;;;;;5033494;28;8892;-80
2022/05/02 14:55:18;;;;;;;;;25.00;23.00;;;;;;;;5041582;28;8881;-81
2022/05/02 14:57:48;;;;;;;;;23.50;23.50;;;;;;;;5041411;28;9685;-80
2022/05/02 15:00:19;;;;;;;;;22.25;22.25;;;;;;;;5039519;28;9682;-81
2022/05/02 15:02:48;;;;;;;;;26.25;26.25;;;;;;;;5035820;28;8902;-79
2022/05/02 15:05:20;;;;;;;;;24.75;24.25;;;;;;;;5038947;28;8856;-79
2022/05/02 15:08:00;;;;;;;;;23.25;21.00;;;;;;;;5037574;28;8879;-84
2022/05/02 15:10:44;;;;;;;;;25.75;22.50;;;;;;;;5033375;28;9114;-83
2022/05/02 15:13:25;;;;;;;;;25.75;25.75;;;;;;;;5040508;28;8873;-86
2022/05/02 15:15:57;;;;;;;;;28.75;28.75;;;;;;;;5030723;28;8875;-79
2022/05/02 15:22:11;;;;;;;;;22.25;22.25;;;;;;;;5041321;28;9335;-84
2022/05/02 15:25:06;;;;;;;;;19.50;19.50;;;;;;;;5027291;28;8864;-78
2022/05/02 15:38:57;;;;;;;;;15.75;15.75;;;;;;;;5033406;28;8840;-85
2022/05/02 15:42:05;;;;;;;;;20.50;20.50;;;;;;;;5028999;28;8939;-79
2022/05/02 15:44:41;;;;;;;;;25.00;22.00;;;;;;;;5030911;28;8861;-84
2022/05/02 15:47:11;;;;;;;;;22.75;22.75;;;;;;;;5034877;28;8898;-84
2022/05/02 15:50:09;;;;;;;;;17.00;17.00;;;;;;;;5034171;28;8933;-82
2022/05/02 15:52:55;;;;;;;;;25.00;24.25;;;;;;;;5035564;28;8882;-82
2022/05/02 15:56:02;;;;;;;;;20.25;20.00;;;;;;;;5039312;28;9751;-85